sensor_id;sensor_type;location;lat;lon;timestamp;P1;durP1;ratioP1;P2;durP2;ratioP2
79410;SDS011;69635;50.964;6.948;2024-03-08T00:01:09;17.15;;;8.15;;
79410;SDS011;69635;50.964;6.948;2024-03-08T00:03:34;18.65;;;8.18;;
79410;SDS011;69635;50.964;6.948;2024-03-08T00:05:59;15.13;;;7.72;;
79410;SDS011;69635;50.964;6.948;2024-03-08T00:08:25;18.52;;;8.38;;
79410;SDS011;69635;50.964;6.948;2024-03-08T00:10:50;18.50;;;8.33;;
79410;SDS011;69635;50.964;6.948;2024-03-08T00:13:15;14.57;;;7.57;;
79410;SDS011;69635;50.964;6.948;2024-03-08T00:15:41;14.85;;;7.50;;
79410;SDS011;69635;50.964;6.948;2024-03-08T00:18:06;19.97;;;8.23;;
79410;SDS011;69635;50.964;6.948;2024-03-08T00:20:31;13.87;;;7.73;;
79410;SDS011;69635;50.964;6.948;2024-03-08T00:22:57;17.38;;;7.93;;
79410;SDS011;69635;50.964;6.948;2024-03-08T00:25:23;18.73;;;8.10;;
79410;SDS011;69635;50.964;6.948;2024-03-08T00:27:48;15.60;;;7.07;;
79410;SDS011;69635;50.964;6.948;2024-03-08T00:30:14;14.90;;;7.80;;
79410;SDS011;69635;50.964;6.948;2024-03-08T00:32:39;17.23;;;7.83;;
79410;SDS011;69635;50.964;6.948;2024-03-08T00:35:05;18.85;;;8.40;;
79410;SDS011;69635;50.964;6.948;2024-03-08T00:37:33;13.93;;;7.30;;
79410;SDS011;69635;50.964;6.948;2024-03-08T00:39:59;15.52;;;7.65;;
79410;SDS011;69635;50.964;6.948;2024-03-08T00:42:24;19.65;;;7.65;;
79410;SDS011;69635;50.964;6.948;2024-03-08T00:44:50;16.63;;;8.27;;
79410;SDS011;69635;50.964;6.948;2024-03-08T00:47:16;15.90;;;8.18;;
79410;SDS011;69635;50.964;6.948;2024-03-08T00:49:41;17.07;;;7.77;;
79410;SDS011;69635;50.964;6.948;2024-03-08T00:52:07;17.00;;;7.40;;
79410;SDS011;69635;50.964;6.948;2024-03-08T00:54:33;15.23;;;8.27;;
79410;SDS011;69635;50.964;6.948;2024-03-08T00:56:58;17.25;;;8.80;;
79410;SDS011;69635;50.964;6.948;2024-03-08T00:59:24;17.52;;;8.18;;
79410;SDS011;69635;50.964;6.948;2024-03-08T01:01:49;16.07;;;8.27;;
79410;SDS011;69635;50.964;6.948;2024-03-08T01:04:14;18.67;;;8.43;;
79410;SDS011;69635;50.964;6.948;2024-03-08T01:06:39;19.00;;;9.10;;
79410;SDS011;69635;50.964;6.948;2024-03-08T01:09:05;18.90;;;8.47;;
79410;SDS011;69635;50.964;6.948;2024-03-08T01:11:32;20.33;;;9.02;;
79410;SDS011;69635;50.964;6.948;2024-03-08T01:13:57;18.92;;;8.60;;
79410;SDS011;69635;50.964;6.948;2024-03-08T01:16:22;14.10;;;8.03;;
79410;SDS011;69635;50.964;6.948;2024-03-08T01:18:47;19.03;;;8.20;;
79410;SDS011;69635;50.964;6.948;2024-03-08T01:21:13;16.47;;;7.47;;
79410;SDS011;69635;50.964;6.948;2024-03-08T01:23:38;16.23;;;7.87;;
79410;SDS011;69635;50.964;6.948;2024-03-08T01:26:03;16.85;;;8.43;;
79410;SDS011;69635;50.964;6.948;2024-03-08T01:28:29;17.10;;;8.48;;
79410;SDS011;69635;50.964;6.948;2024-03-08T01:30:55;15.75;;;7.88;;
79410;SDS011;69635;50.964;6.948;2024-03-08T01:33:24;15.85;;;8.23;;
79410;SDS011;69635;50.964;6.948;2024-03-08T01:35:50;17.10;;;7.95;;
79410;SDS011;69635;50.964;6.948;2024-03-08T01:38:15;17.15;;;6.65;;
79410;SDS011;69635;50.964;6.948;2024-03-08T01:40:41;18.53;;;8.53;;
79410;SDS011;69635;50.964;6.948;2024-03-08T01:43:22;21.83;;;8.73;;
79410;SDS011;69635;50.964;6.948;2024-03-08T01:45:48;18.20;;;8.05;;
79410;SDS011;69635;50.964;6.948;2024-03-08T01:48:14;17.67;;;8.18;;
79410;SDS011;69635;50.964;6.948;2024-03-08T01:50:39;19.15;;;8.95;;
79410;SDS011;69635;50.964;6.948;2024-03-08T01:53:05;19.05;;;8.77;;
79410;SDS011;69635;50.964;6.948;2024-03-08T01:55:31;18.55;;;8.85;;
79410;SDS011;69635;50.964;6.948;2024-03-08T01:57:57;18.75;;;8.18;;
79410;SDS011;69635;50.964;6.948;2024-03-08T02:00:23;26.20;;;8.57;;
79410;SDS011;69635;50.964;6.948;2024-03-08T02:02:49;17.90;;;7.72;;
79410;SDS011;69635;50.964;6.948;2024-03-08T02:05:16;16.90;;;7.78;;
79410;SDS011;69635;50.964;6.948;2024-03-08T02:07:41;20.40;;;8.60;;
79410;SDS011;69635;50.964;6.948;2024-03-08T02:10:10;21.10;;;8.10;;
79410;SDS011;69635;50.964;6.948;2024-03-08T02:12:37;17.48;;;8.05;;
79410;SDS011;69635;50.964;6.948;2024-03-08T02:15:03;19.00;;;8.70;;
79410;SDS011;69635;50.964;6.948;2024-03-08T02:17:28;21.20;;;8.32;;
79410;SDS011;69635;50.964;6.948;2024-03-08T02:19:55;19.08;;;8.30;;
79410;SDS011;69635;50.964;6.948;2024-03-08T02:22:21;18.40;;;8.38;;
79410;SDS011;69635;50.964;6.948;2024-03-08T02:24:46;20.58;;;9.30;;
79410;SDS011;69635;50.964;6.948;2024-03-08T02:27:12;16.77;;;7.73;;
79410;SDS011;69635;50.964;6.948;2024-03-08T02:29:37;22.23;;;9.87;;
79410;SDS011;69635;50.964;6.948;2024-03-08T02:32:06;21.45;;;8.32;;
79410;SDS011;69635;50.964;6.948;2024-03-08T02:34:31;19.48;;;8.80;;
79410;SDS011;69635;50.964;6.948;2024-03-08T02:36:56;16.95;;;7.97;;
79410;SDS011;69635;50.964;6.948;2024-03-08T02:39:21;17.77;;;8.93;;
79410;SDS011;69635;50.964;6.948;2024-03-08T02:41:47;16.70;;;8.13;;
79410;SDS011;69635;50.964;6.948;2024-03-08T02:44:12;16.30;;;8.10;;
79410;SDS011;69635;50.964;6.948;2024-03-08T02:46:37;18.73;;;8.70;;
79410;SDS011;69635;50.964;6.948;2024-03-08T02:49:02;17.57;;;7.50;;
79410;SDS011;69635;50.964;6.948;2024-03-08T02:51:28;20.20;;;8.83;;
79410;SDS011;69635;50.964;6.948;2024-03-08T02:53:53;17.65;;;8.15;;
79410;SDS011;69635;50.964;6.948;2024-03-08T02:56:19;18.70;;;8.60;;
79410;SDS011;69635;50.964;6.948;2024-03-08T02:58:44;20.10;;;8.23;;
79410;SDS011;69635;50.964;6.948;2024-03-08T03:01:13;20.67;;;9.45;;
79410;SDS011;69635;50.964;6.948;2024-03-08T03:03:39;17.20;;;8.27;;
79410;SDS011;69635;50.964;6.948;2024-03-08T03:06:04;16.13;;;8.07;;
79410;SDS011;69635;50.964;6.948;2024-03-08T03:08:34;15.43;;;7.93;;
79410;SDS011;69635;50.964;6.948;2024-03-08T03:10:59;16.77;;;7.97;;
79410;SDS011;69635;50.964;6.948;2024-03-08T03:13:24;20.70;;;9.90;;
79410;SDS011;69635;50.964;6.948;2024-03-08T03:15:50;19.83;;;8.20;;
79410;SDS011;69635;50.964;6.948;2024-03-08T03:18:15;18.40;;;9.00;;
79410;SDS011;69635;50.964;6.948;2024-03-08T03:20:41;20.17;;;9.47;;
79410;SDS011;69635;50.964;6.948;2024-03-08T03:23:07;18.27;;;8.30;;
79410;SDS011;69635;50.964;6.948;2024-03-08T03:25:34;17.58;;;7.90;;
79410;SDS011;69635;50.964;6.948;2024-03-08T03:28:00;17.55;;;8.88;;
79410;SDS011;69635;50.964;6.948;2024-03-08T03:30:25;19.23;;;9.00;;
79410;SDS011;69635;50.964;6.948;2024-03-08T03:32:51;16.63;;;8.90;;
79410;SDS011;69635;50.964;6.948;2024-03-08T03:35:17;21.08;;;9.93;;
79410;SDS011;69635;50.964;6.948;2024-03-08T03:37:42;14.93;;;8.10;;
79410;SDS011;69635;50.964;6.948;2024-03-08T03:40:10;15.45;;;7.60;;
79410;SDS011;69635;50.964;6.948;2024-03-08T03:42:35;19.65;;;9.32;;
79410;SDS011;69635;50.964;6.948;2024-03-08T03:45:03;19.85;;;9.13;;
79410;SDS011;69635;50.964;6.948;2024-03-08T03:47:28;20.48;;;8.35;;
79410;SDS011;69635;50.964;6.948;2024-03-08T03:49:54;19.33;;;8.30;;
79410;SDS011;69635;50.964;6.948;2024-03-08T03:52:19;19.38;;;8.13;;
79410;SDS011;69635;50.964;6.948;2024-03-08T03:54:44;20.13;;;8.97;;
79410;SDS011;69635;50.964;6.948;2024-03-08T03:57:10;15.43;;;7.07;;
79410;SDS011;69635;50.964;6.948;2024-03-08T03:59:35;18.23;;;8.20;;
79410;SDS011;69635;50.964;6.948;2024-03-08T04:02:00;18.55;;;7.32;;
79410;SDS011;69635;50.964;6.948;2024-03-08T04:04:26;17.13;;;7.83;;
79410;SDS011;69635;50.964;6.948;2024-03-08T04:06:51;16.07;;;7.97;;
79410;SDS011;69635;50.964;6.948;2024-03-08T04:09:16;17.48;;;8.27;;
79410;SDS011;69635;50.964;6.948;2024-03-08T04:11:44;16.50;;;8.10;;
79410;SDS011;69635;50.964;6.948;2024-03-08T04:14:09;17.73;;;8.20;;
79410;SDS011;69635;50.964;6.948;2024-03-08T04:16:35;18.70;;;8.40;;
79410;SDS011;69635;50.964;6.948;2024-03-08T04:19:00;16.23;;;8.33;;
79410;SDS011;69635;50.964;6.948;2024-03-08T04:21:29;19.58;;;8.27;;
79410;SDS011;69635;50.964;6.948;2024-03-08T04:23:55;20.00;;;8.82;;
79410;SDS011;69635;50.964;6.948;2024-03-08T04:26:20;21.50;;;8.47;;
79410;SDS011;69635;50.964;6.948;2024-03-08T04:28:45;19.65;;;9.50;;
79410;SDS011;69635;50.964;6.948;2024-03-08T04:31:11;19.15;;;7.75;;
79410;SDS011;69635;50.964;6.948;2024-03-08T04:33:36;21.57;;;8.70;;
79410;SDS011;69635;50.964;6.948;2024-03-08T04:36:01;17.67;;;8.50;;
79410;SDS011;69635;50.964;6.948;2024-03-08T04:38:29;17.83;;;7.50;;
79410;SDS011;69635;50.964;6.948;2024-03-08T04:40:55;22.25;;;8.88;;
79410;SDS011;69635;50.964;6.948;2024-03-08T04:43:20;20.38;;;8.27;;
79410;SDS011;69635;50.964;6.948;2024-03-08T04:45:46;21.10;;;9.85;;
79410;SDS011;69635;50.964;6.948;2024-03-08T04:48:11;19.07;;;7.80;;
79410;SDS011;69635;50.964;6.948;2024-03-08T04:50:37;15.57;;;6.73;;
79410;SDS011;69635;50.964;6.948;2024-03-08T04:53:03;19.48;;;7.97;;
79410;SDS011;69635;50.964;6.948;2024-03-08T04:55:28;16.30;;;7.93;;
79410;SDS011;69635;50.964;6.948;2024-03-08T04:57:54;14.70;;;6.70;;
79410;SDS011;69635;50.964;6.948;2024-03-08T05:00:19;21.55;;;8.30;;
79410;SDS011;69635;50.964;6.948;2024-03-08T05:02:45;15.63;;;7.65;;
79410;SDS011;69635;50.964;6.948;2024-03-08T05:05:10;21.10;;;9.33;;
79410;SDS011;69635;50.964;6.948;2024-03-08T05:07:40;18.17;;;7.85;;
79410;SDS011;69635;50.964;6.948;2024-03-08T05:10:06;16.33;;;8.30;;
79410;SDS011;69635;50.964;6.948;2024-03-08T05:12:31;17.40;;;7.22;;
79410;SDS011;69635;50.964;6.948;2024-03-08T05:14:57;15.68;;;7.32;;
79410;SDS011;69635;50.964;6.948;2024-03-08T05:17:22;19.00;;;9.00;;
79410;SDS011;69635;50.964;6.948;2024-03-08T05:19:49;24.70;;;8.80;;
79410;SDS011;69635;50.964;6.948;2024-03-08T05:22:14;21.23;;;9.37;;
79410;SDS011;69635;50.964;6.948;2024-03-08T05:24:39;15.50;;;8.53;;
79410;SDS011;69635;50.964;6.948;2024-03-08T05:27:04;21.57;;;9.33;;
79410;SDS011;69635;50.964;6.948;2024-03-08T05:29:30;30.10;;;10.07;;
79410;SDS011;69635;50.964;6.948;2024-03-08T05:31:55;18.67;;;8.10;;
79410;SDS011;69635;50.964;6.948;2024-03-08T05:34:21;19.55;;;8.10;;
79410;SDS011;69635;50.964;6.948;2024-03-08T05:36:47;18.60;;;8.77;;
79410;SDS011;69635;50.964;6.948;2024-03-08T05:39:14;24.45;;;10.38;;
79410;SDS011;69635;50.964;6.948;2024-03-08T05:41:40;23.42;;;8.45;;
79410;SDS011;69635;50.964;6.948;2024-03-08T05:44:06;16.58;;;8.70;;
79410;SDS011;69635;50.964;6.948;2024-03-08T05:46:31;24.35;;;9.48;;
79410;SDS011;69635;50.964;6.948;2024-03-08T05:48:56;26.70;;;10.43;;
79410;SDS011;69635;50.964;6.948;2024-03-08T05:51:23;17.25;;;8.07;;
79410;SDS011;69635;50.964;6.948;2024-03-08T05:53:49;17.40;;;8.63;;
79410;SDS011;69635;50.964;6.948;2024-03-08T05:56:14;19.80;;;8.73;;
79410;SDS011;69635;50.964;6.948;2024-03-08T05:58:39;21.90;;;8.97;;
79410;SDS011;69635;50.964;6.948;2024-03-08T06:01:04;26.27;;;10.67;;
79410;SDS011;69635;50.964;6.948;2024-03-08T06:03:33;13.35;;;6.38;;
79410;SDS011;69635;50.964;6.948;2024-03-08T06:05:58;15.38;;;7.70;;
79410;SDS011;69635;50.964;6.948;2024-03-08T06:08:23;20.70;;;10.10;;
79410;SDS011;69635;50.964;6.948;2024-03-08T06:10:54;19.15;;;7.88;;
79410;SDS011;69635;50.964;6.948;2024-03-08T06:13:19;16.37;;;8.43;;
79410;SDS011;69635;50.964;6.948;2024-03-08T06:15:45;20.63;;;9.73;;
79410;SDS011;69635;50.964;6.948;2024-03-08T06:18:10;19.77;;;8.35;;
79410;SDS011;69635;50.964;6.948;2024-03-08T06:20:36;22.65;;;9.25;;
79410;SDS011;69635;50.964;6.948;2024-03-08T06:23:02;25.77;;;9.63;;
79410;SDS011;69635;50.964;6.948;2024-03-08T06:25:27;19.53;;;8.70;;
79410;SDS011;69635;50.964;6.948;2024-03-08T06:27:52;20.47;;;9.03;;
79410;SDS011;69635;50.964;6.948;2024-03-08T06:30:18;22.98;;;8.65;;
79410;SDS011;69635;50.964;6.948;2024-03-08T06:32:43;20.10;;;8.40;;
79410;SDS011;69635;50.964;6.948;2024-03-08T06:35:08;22.40;;;9.30;;
79410;SDS011;69635;50.964;6.948;2024-03-08T06:37:35;22.52;;;8.30;;
79410;SDS011;69635;50.964;6.948;2024-03-08T06:40:00;21.02;;;8.30;;
79410;SDS011;69635;50.964;6.948;2024-03-08T06:42:29;17.20;;;8.27;;
79410;SDS011;69635;50.964;6.948;2024-03-08T06:44:58;21.55;;;9.48;;
79410;SDS011;69635;50.964;6.948;2024-03-08T06:47:29;22.17;;;9.50;;
79410;SDS011;69635;50.964;6.948;2024-03-08T06:49:54;19.63;;;9.13;;
79410;SDS011;69635;50.964;6.948;2024-03-08T06:52:20;21.20;;;9.70;;
79410;SDS011;69635;50.964;6.948;2024-03-08T06:54:45;22.40;;;8.50;;
79410;SDS011;69635;50.964;6.948;2024-03-08T06:57:10;24.40;;;9.83;;
79410;SDS011;69635;50.964;6.948;2024-03-08T06:59:35;23.23;;;10.47;;
79410;SDS011;69635;50.964;6.948;2024-03-08T07:02:04;19.20;;;7.78;;
79410;SDS011;69635;50.964;6.948;2024-03-08T07:04:29;21.48;;;9.57;;
79410;SDS011;69635;50.964;6.948;2024-03-08T07:06:58;20.75;;;9.18;;
79410;SDS011;69635;50.964;6.948;2024-03-08T07:09:23;16.77;;;8.50;;
79410;SDS011;69635;50.964;6.948;2024-03-08T07:11:49;19.20;;;8.63;;
79410;SDS011;69635;50.964;6.948;2024-03-08T07:14:20;18.33;;;8.80;;
79410;SDS011;69635;50.964;6.948;2024-03-08T07:16:46;22.98;;;9.18;;
79410;SDS011;69635;50.964;6.948;2024-03-08T07:19:12;19.85;;;8.77;;
79410;SDS011;69635;50.964;6.948;2024-03-08T07:21:37;20.13;;;9.50;;
79410;SDS011;69635;50.964;6.948;2024-03-08T07:24:02;20.37;;;9.87;;
79410;SDS011;69635;50.964;6.948;2024-03-08T07:26:46;18.75;;;8.85;;
79410;SDS011;69635;50.964;6.948;2024-03-08T07:29:15;24.42;;;8.05;;
79410;SDS011;69635;50.964;6.948;2024-03-08T07:31:40;20.77;;;8.70;;
79410;SDS011;69635;50.964;6.948;2024-03-08T07:34:23;21.15;;;9.15;;
79410;SDS011;69635;50.964;6.948;2024-03-08T07:36:49;17.60;;;8.73;;
79410;SDS011;69635;50.964;6.948;2024-03-08T07:39:15;19.38;;;8.20;;
79410;SDS011;69635;50.964;6.948;2024-03-08T07:41:41;20.10;;;9.17;;
79410;SDS011;69635;50.964;6.948;2024-03-08T07:44:06;22.57;;;9.53;;
79410;SDS011;69635;50.964;6.948;2024-03-08T07:46:32;21.10;;;9.68;;
79410;SDS011;69635;50.964;6.948;2024-03-08T07:48:59;19.85;;;8.95;;
79410;SDS011;69635;50.964;6.948;2024-03-08T07:51:24;18.02;;;8.30;;
79410;SDS011;69635;50.964;6.948;2024-03-08T07:53:49;18.23;;;8.17;;
79410;SDS011;69635;50.964;6.948;2024-03-08T07:56:14;15.17;;;7.27;;
79410;SDS011;69635;50.964;6.948;2024-03-08T07:58:41;17.83;;;8.10;;
79410;SDS011;69635;50.964;6.948;2024-03-08T08:01:07;21.48;;;8.68;;
79410;SDS011;69635;50.964;6.948;2024-03-08T08:03:33;14.68;;;7.25;;
79410;SDS011;69635;50.964;6.948;2024-03-08T08:06:00;13.93;;;6.28;;
79410;SDS011;69635;50.964;6.948;2024-03-08T08:08:26;15.98;;;7.72;;
79410;SDS011;69635;50.964;6.948;2024-03-08T08:10:51;20.70;;;8.80;;
79410;SDS011;69635;50.964;6.948;2024-03-08T08:13:16;21.67;;;9.40;;
79410;SDS011;69635;50.964;6.948;2024-03-08T08:15:43;18.88;;;8.35;;
79410;SDS011;69635;50.964;6.948;2024-03-08T08:18:09;19.70;;;9.68;;
79410;SDS011;69635;50.964;6.948;2024-03-08T08:20:35;22.05;;;8.02;;
79410;SDS011;69635;50.964;6.948;2024-03-08T08:23:01;19.50;;;7.55;;
79410;SDS011;69635;50.964;6.948;2024-03-08T08:25:26;18.80;;;9.07;;
79410;SDS011;69635;50.964;6.948;2024-03-08T08:27:51;20.08;;;8.30;;
79410;SDS011;69635;50.964;6.948;2024-03-08T08:30:18;18.10;;;8.02;;
79410;SDS011;69635;50.964;6.948;2024-03-08T08:32:43;15.40;;;8.30;;
79410;SDS011;69635;50.964;6.948;2024-03-08T08:35:09;16.02;;;8.65;;
79410;SDS011;69635;50.964;6.948;2024-03-08T08:37:39;16.02;;;8.93;;
79410;SDS011;69635;50.964;6.948;2024-03-08T08:40:06;18.80;;;8.02;;
79410;SDS011;69635;50.964;6.948;2024-03-08T08:42:35;17.77;;;7.97;;
79410;SDS011;69635;50.964;6.948;2024-03-08T08:45:03;12.40;;;6.32;;
79410;SDS011;69635;50.964;6.948;2024-03-08T08:47:28;18.80;;;8.02;;
79410;SDS011;69635;50.964;6.948;2024-03-08T08:49:53;19.60;;;7.63;;
79410;SDS011;69635;50.964;6.948;2024-03-08T08:52:19;14.07;;;6.40;;
79410;SDS011;69635;50.964;6.948;2024-03-08T08:54:45;17.52;;;8.13;;
79410;SDS011;69635;50.964;6.948;2024-03-08T08:57:10;16.17;;;7.77;;
79410;SDS011;69635;50.964;6.948;2024-03-08T08:59:38;15.50;;;7.53;;
79410;SDS011;69635;50.964;6.948;2024-03-08T09:02:07;19.75;;;9.05;;
79410;SDS011;69635;50.964;6.948;2024-03-08T09:04:35;18.10;;;7.80;;
79410;SDS011;69635;50.964;6.948;2024-03-08T09:07:01;16.93;;;8.40;;
79410;SDS011;69635;50.964;6.948;2024-03-08T09:09:26;16.73;;;8.00;;
79410;SDS011;69635;50.964;6.948;2024-03-08T09:11:51;14.63;;;7.35;;
79410;SDS011;69635;50.964;6.948;2024-03-08T09:14:17;17.48;;;8.15;;
79410;SDS011;69635;50.964;6.948;2024-03-08T09:16:43;16.13;;;8.63;;
79410;SDS011;69635;50.964;6.948;2024-03-08T09:19:08;15.05;;;6.47;;
79410;SDS011;69635;50.964;6.948;2024-03-08T09:21:36;14.40;;;6.78;;
79410;SDS011;69635;50.964;6.948;2024-03-08T09:24:01;11.70;;;6.35;;
79410;SDS011;69635;50.964;6.948;2024-03-08T09:26:27;17.35;;;8.10;;
79410;SDS011;69635;50.964;6.948;2024-03-08T09:28:52;13.35;;;7.22;;
79410;SDS011;69635;50.964;6.948;2024-03-08T09:31:19;14.10;;;7.15;;
79410;SDS011;69635;50.964;6.948;2024-03-08T09:33:44;14.33;;;6.30;;
79410;SDS011;69635;50.964;6.948;2024-03-08T09:36:11;19.73;;;7.75;;
79410;SDS011;69635;50.964;6.948;2024-03-08T09:38:37;11.18;;;6.00;;
79410;SDS011;69635;50.964;6.948;2024-03-08T09:41:04;11.80;;;5.97;;
79410;SDS011;69635;50.964;6.948;2024-03-08T09:43:29;13.20;;;6.35;;
79410;SDS011;69635;50.964;6.948;2024-03-08T09:45:55;17.10;;;6.75;;
79410;SDS011;69635;50.964;6.948;2024-03-08T09:48:22;14.63;;;7.43;;
79410;SDS011;69635;50.964;6.948;2024-03-08T09:50:48;16.92;;;6.22;;
79410;SDS011;69635;50.964;6.948;2024-03-08T09:53:15;12.15;;;5.50;;
79410;SDS011;69635;50.964;6.948;2024-03-08T09:55:41;15.73;;;6.45;;
79410;SDS011;69635;50.964;6.948;2024-03-08T09:58:12;10.70;;;6.10;;
79410;SDS011;69635;50.964;6.948;2024-03-08T10:00:53;12.82;;;6.22;;
79410;SDS011;69635;50.964;6.948;2024-03-08T10:03:21;13.25;;;6.78;;
79410;SDS011;69635;50.964;6.948;2024-03-08T10:05:47;11.00;;;6.25;;
79410;SDS011;69635;50.964;6.948;2024-03-08T10:08:12;14.10;;;6.15;;
79410;SDS011;69635;50.964;6.948;2024-03-08T10:10:38;15.85;;;6.50;;
79410;SDS011;69635;50.964;6.948;2024-03-08T10:13:07;12.18;;;5.75;;
79410;SDS011;69635;50.964;6.948;2024-03-08T10:15:32;11.85;;;5.95;;
79410;SDS011;69635;50.964;6.948;2024-03-08T10:17:58;13.60;;;6.60;;
79410;SDS011;69635;50.964;6.948;2024-03-08T10:20:23;11.02;;;5.20;;
79410;SDS011;69635;50.964;6.948;2024-03-08T10:22:49;8.37;;;4.47;;
79410;SDS011;69635;50.964;6.948;2024-03-08T10:25:14;12.60;;;5.88;;
79410;SDS011;69635;50.964;6.948;2024-03-08T10:27:40;11.90;;;5.13;;
79410;SDS011;69635;50.964;6.948;2024-03-08T10:30:10;9.60;;;5.53;;
79410;SDS011;69635;50.964;6.948;2024-03-08T10:32:35;13.05;;;5.70;;
79410;SDS011;69635;50.964;6.948;2024-03-08T10:35:00;8.47;;;4.00;;
79410;SDS011;69635;50.964;6.948;2024-03-08T10:37:26;8.93;;;3.90;;
79410;SDS011;69635;50.964;6.948;2024-03-08T10:40:03;9.65;;;4.47;;
79410;SDS011;69635;50.964;6.948;2024-03-08T10:47:47;9.07;;;4.88;;
79410;SDS011;69635;50.964;6.948;2024-03-08T10:50:17;6.07;;;3.88;;
79410;SDS011;69635;50.964;6.948;2024-03-08T10:52:46;11.40;;;4.82;;
79410;SDS011;69635;50.964;6.948;2024-03-08T10:55:13;8.18;;;4.55;;
79410;SDS011;69635;50.964;6.948;2024-03-08T10:57:39;12.20;;;4.93;;
79410;SDS011;69635;50.964;6.948;2024-03-08T11:00:07;9.63;;;4.15;;
79410;SDS011;69635;50.964;6.948;2024-03-08T11:05:02;7.13;;;3.95;;
79410;SDS011;69635;50.964;6.948;2024-03-08T11:07:30;12.05;;;4.85;;
79410;SDS011;69635;50.964;6.948;2024-03-08T11:14:54;9.48;;;4.22;;
79410;SDS011;69635;50.964;6.948;2024-03-08T11:19:57;8.45;;;3.80;;
79410;SDS011;69635;50.964;6.948;2024-03-08T11:22:29;7.43;;;4.28;;
79410;SDS011;69635;50.964;6.948;2024-03-08T11:25:04;10.43;;;5.38;;
79410;SDS011;69635;50.964;6.948;2024-03-08T11:27:35;9.77;;;4.90;;
79410;SDS011;69635;50.964;6.948;2024-03-08T11:32:34;6.80;;;3.72;;
79410;SDS011;69635;50.964;6.948;2024-03-08T11:35:00;7.85;;;4.50;;
79410;SDS011;69635;50.964;6.948;2024-03-08T11:37:30;6.82;;;3.63;;
79410;SDS011;69635;50.964;6.948;2024-03-08T11:42:26;7.50;;;3.60;;
79410;SDS011;69635;50.964;6.948;2024-03-08T11:44:52;7.00;;;4.60;;
79410;SDS011;69635;50.964;6.948;2024-03-08T11:47:17;7.65;;;3.78;;
79410;SDS011;69635;50.964;6.948;2024-03-08T11:49:43;8.13;;;3.50;;
79410;SDS011;69635;50.964;6.948;2024-03-08T11:52:13;4.85;;;2.97;;
79410;SDS011;69635;50.964;6.948;2024-03-08T11:54:51;10.10;;;5.15;;
79410;SDS011;69635;50.964;6.948;2024-03-08T11:57:20;9.18;;;4.45;;
79410;SDS011;69635;50.964;6.948;2024-03-08T11:59:53;7.60;;;4.03;;
79410;SDS011;69635;50.964;6.948;2024-03-08T12:02:19;5.85;;;3.40;;
79410;SDS011;69635;50.964;6.948;2024-03-08T12:04:45;6.47;;;3.75;;
79410;SDS011;69635;50.964;6.948;2024-03-08T12:07:13;8.43;;;4.10;;
79410;SDS011;69635;50.964;6.948;2024-03-08T12:09:42;8.05;;;4.20;;
79410;SDS011;69635;50.964;6.948;2024-03-08T12:12:11;9.52;;;5.05;;
79410;SDS011;69635;50.964;6.948;2024-03-08T12:14:36;11.00;;;3.87;;
79410;SDS011;69635;50.964;6.948;2024-03-08T12:17:02;8.13;;;4.25;;
79410;SDS011;69635;50.964;6.948;2024-03-08T12:19:28;8.65;;;4.22;;
79410;SDS011;69635;50.964;6.948;2024-03-08T12:21:54;10.18;;;4.72;;
79410;SDS011;69635;50.964;6.948;2024-03-08T12:24:19;9.00;;;4.15;;
79410;SDS011;69635;50.964;6.948;2024-03-08T12:26:45;8.38;;;4.25;;
79410;SDS011;69635;50.964;6.948;2024-03-08T12:29:28;7.00;;;4.25;;
79410;SDS011;69635;50.964;6.948;2024-03-08T12:31:55;10.20;;;4.15;;
79410;SDS011;69635;50.964;6.948;2024-03-08T12:34:23;5.25;;;2.92;;
79410;SDS011;69635;50.964;6.948;2024-03-08T12:36:49;10.05;;;3.85;;
79410;SDS011;69635;50.964;6.948;2024-03-08T12:39:17;7.03;;;4.03;;
79410;SDS011;69635;50.964;6.948;2024-03-08T12:41:43;9.65;;;5.15;;
79410;SDS011;69635;50.964;6.948;2024-03-08T12:44:08;8.15;;;3.83;;
79410;SDS011;69635;50.964;6.948;2024-03-08T12:46:36;10.07;;;4.35;;
79410;SDS011;69635;50.964;6.948;2024-03-08T12:49:05;10.98;;;4.90;;
79410;SDS011;69635;50.964;6.948;2024-03-08T12:51:30;7.65;;;3.95;;
79410;SDS011;69635;50.964;6.948;2024-03-08T12:53:58;11.98;;;5.05;;
79410;SDS011;69635;50.964;6.948;2024-03-08T12:56:32;7.33;;;4.20;;
79410;SDS011;69635;50.964;6.948;2024-03-08T12:58:59;10.90;;;4.82;;
79410;SDS011;69635;50.964;6.948;2024-03-08T13:01:25;6.45;;;3.40;;
79410;SDS011;69635;50.964;6.948;2024-03-08T13:03:50;9.02;;;5.13;;
79410;SDS011;69635;50.964;6.948;2024-03-08T13:06:15;10.47;;;4.30;;
79410;SDS011;69635;50.964;6.948;2024-03-08T13:08:41;9.80;;;4.85;;
79410;SDS011;69635;50.964;6.948;2024-03-08T13:11:09;8.05;;;4.35;;
79410;SDS011;69635;50.964;6.948;2024-03-08T13:13:39;9.07;;;4.43;;
79410;SDS011;69635;50.964;6.948;2024-03-08T13:16:05;9.40;;;4.53;;
79410;SDS011;69635;50.964;6.948;2024-03-08T13:18:33;7.70;;;4.05;;
79410;SDS011;69635;50.964;6.948;2024-03-08T13:20:58;9.00;;;4.60;;
79410;SDS011;69635;50.964;6.948;2024-03-08T13:23:24;8.00;;;4.05;;
79410;SDS011;69635;50.964;6.948;2024-03-08T13:25:49;8.77;;;4.13;;
79410;SDS011;69635;50.964;6.948;2024-03-08T13:28:16;9.90;;;5.13;;
79410;SDS011;69635;50.964;6.948;2024-03-08T13:30:45;7.88;;;3.85;;
79410;SDS011;69635;50.964;6.948;2024-03-08T13:33:10;8.48;;;4.28;;
79410;SDS011;69635;50.964;6.948;2024-03-08T13:35:36;8.50;;;3.95;;
79410;SDS011;69635;50.964;6.948;2024-03-08T13:38:03;9.50;;;4.65;;
79410;SDS011;69635;50.964;6.948;2024-03-08T13:40:29;8.23;;;3.53;;
79410;SDS011;69635;50.964;6.948;2024-03-08T13:42:55;8.40;;;3.80;;
79410;SDS011;69635;50.964;6.948;2024-03-08T13:45:21;6.82;;;3.55;;
79410;SDS011;69635;50.964;6.948;2024-03-08T13:47:49;10.48;;;5.07;;
79410;SDS011;69635;50.964;6.948;2024-03-08T13:50:16;10.65;;;4.40;;
79410;SDS011;69635;50.964;6.948;2024-03-08T13:52:47;8.38;;;3.33;;
79410;SDS011;69635;50.964;6.948;2024-03-08T13:55:17;9.90;;;4.13;;
79410;SDS011;69635;50.964;6.948;2024-03-08T13:57:42;10.38;;;4.03;;
79410;SDS011;69635;50.964;6.948;2024-03-08T14:00:07;10.82;;;3.97;;
79410;SDS011;69635;50.964;6.948;2024-03-08T14:02:36;6.65;;;4.28;;
79410;SDS011;69635;50.964;6.948;2024-03-08T14:05:01;8.15;;;4.00;;
79410;SDS011;69635;50.964;6.948;2024-03-08T14:07:27;7.82;;;3.60;;
79410;SDS011;69635;50.964;6.948;2024-03-08T14:09:54;7.03;;;3.63;;
79410;SDS011;69635;50.964;6.948;2024-03-08T14:12:19;7.15;;;3.42;;
79410;SDS011;69635;50.964;6.948;2024-03-08T14:14:56;8.35;;;3.95;;
79410;SDS011;69635;50.964;6.948;2024-03-08T14:17:27;7.45;;;4.03;;
79410;SDS011;69635;50.964;6.948;2024-03-08T14:19:55;8.27;;;4.25;;
79410;SDS011;69635;50.964;6.948;2024-03-08T14:22:21;7.83;;;3.80;;
79410;SDS011;69635;50.964;6.948;2024-03-08T14:24:46;8.68;;;4.07;;
79410;SDS011;69635;50.964;6.948;2024-03-08T14:27:11;8.82;;;3.83;;
79410;SDS011;69635;50.964;6.948;2024-03-08T14:29:37;8.80;;;4.32;;
79410;SDS011;69635;50.964;6.948;2024-03-08T14:32:12;6.40;;;3.90;;
79410;SDS011;69635;50.964;6.948;2024-03-08T14:34:38;8.65;;;4.35;;
79410;SDS011;69635;50.964;6.948;2024-03-08T14:37:03;9.18;;;4.30;;
79410;SDS011;69635;50.964;6.948;2024-03-08T14:39:33;8.88;;;5.00;;
79410;SDS011;69635;50.964;6.948;2024-03-08T14:42:02;9.52;;;4.70;;
79410;SDS011;69635;50.964;6.948;2024-03-08T14:44:28;9.95;;;5.00;;
79410;SDS011;69635;50.964;6.948;2024-03-08T14:46:55;8.63;;;4.90;;
79410;SDS011;69635;50.964;6.948;2024-03-08T14:49:25;9.15;;;4.75;;
79410;SDS011;69635;50.964;6.948;2024-03-08T14:51:54;8.82;;;4.32;;
79410;SDS011;69635;50.964;6.948;2024-03-08T14:54:20;11.80;;;5.57;;